createdAt,value
2023-06-26T00:01:14.295Z,3.67
2023-06-26T00:03:44.064Z,3.83
2023-06-26T00:06:16.577Z,3.53
2023-06-26T00:08:46.971Z,4.07
2023-06-26T00:11:16.687Z,3.35
2023-06-26T00:13:46.351Z,3.67
2023-06-26T00:16:16.087Z,3.58
2023-06-26T00:18:45.799Z,3.50
2023-06-26T00:21:18.202Z,3.50
2023-06-26T00:23:47.914Z,3.97
2023-06-26T00:26:17.635Z,3.40
2023-06-26T00:28:47.347Z,3.67
2023-06-26T00:31:17.148Z,3.40
2023-06-26T00:33:46.967Z,4.20
2023-06-26T00:36:19.307Z,3.63
2023-06-26T00:38:49.016Z,4.00
2023-06-26T00:41:18.769Z,3.58
2023-06-26T00:43:48.513Z,3.53
2023-06-26T00:46:18.268Z,3.58
2023-06-26T00:48:48.634Z,3.25
2023-06-26T00:51:20.992Z,3.00
2023-06-26T00:53:51.752Z,3.28
2023-06-26T00:56:22.393Z,2.92
2023-06-26T00:58:52.123Z,3.55
2023-06-26T01:01:22.962Z,3.17
2023-06-26T01:03:54.059Z,3.58
2023-06-26T01:06:27.725Z,3.55
2023-06-26T01:08:59.214Z,3.60
2023-06-26T01:11:29.037Z,3.47
2023-06-26T01:14:00.262Z,3.97
2023-06-26T01:16:31.882Z,4.32
2023-06-26T01:19:01.576Z,3.97
2023-06-26T01:21:34.285Z,3.75
2023-06-26T01:24:10.636Z,4.03
2023-06-26T01:26:44.386Z,3.65
2023-06-26T01:29:19.280Z,3.80
2023-06-26T01:31:50.823Z,4.22
2023-06-26T01:34:21.576Z,3.72
2023-06-26T01:36:53.458Z,4.13
2023-06-26T01:39:23.254Z,3.72
2023-06-26T01:41:57.076Z,3.80
2023-06-26T01:44:29.953Z,3.58
2023-06-26T01:47:03.369Z,4.13
2023-06-26T01:49:42.109Z,4.15
2023-06-26T01:52:15.871Z,4.25
2023-06-26T01:54:50.993Z,3.55
2023-06-26T01:57:24.107Z,3.97
2023-06-26T01:59:55.744Z,3.78
2023-06-26T02:02:27.175Z,4.13
2023-06-26T02:04:57.070Z,3.30
2023-06-26T02:07:26.968Z,3.15
2023-06-26T02:09:59.032Z,3.42
2023-06-26T02:12:31.420Z,3.90
2023-06-26T02:15:01.152Z,3.50
2023-06-26T02:17:30.914Z,2.95
2023-06-26T02:20:00.746Z,3.80
2023-06-26T02:22:30.506Z,4.00
2023-06-26T02:25:00.285Z,3.28
2023-06-26T02:27:32.631Z,3.55
2023-06-26T02:30:02.480Z,3.97
2023-06-26T02:32:32.238Z,3.92
2023-06-26T02:35:01.965Z,3.63
2023-06-26T02:37:31.696Z,4.00
2023-06-26T02:40:02.715Z,3.72
2023-06-26T02:42:35.141Z,3.58
2023-06-26T02:45:04.955Z,4.20
2023-06-26T02:47:36.121Z,3.92
2023-06-26T02:50:05.936Z,4.05
2023-06-26T02:52:51.903Z,3.53
2023-06-26T02:55:23.497Z,3.88
2023-06-26T02:57:57.933Z,4.18
2023-06-26T03:00:28.010Z,4.05
2023-06-26T03:02:58.520Z,3.45
2023-06-26T03:05:28.471Z,3.47
2023-06-26T03:07:58.308Z,3.85
2023-06-26T03:10:28.056Z,3.92
2023-06-26T03:13:00.767Z,4.25
2023-06-26T03:15:30.661Z,3.65
2023-06-26T03:18:00.451Z,4.03
2023-06-26T03:20:32.450Z,3.75
2023-06-26T03:23:02.191Z,3.85
2023-06-26T03:25:32.309Z,4.32
2023-06-26T03:28:15.593Z,8.82
2023-06-26T03:30:45.946Z,7.88
2023-06-26T03:33:15.717Z,7.43
2023-06-26T03:35:45.512Z,6.20
2023-06-26T03:38:17.236Z,5.32
2023-06-26T03:40:48.373Z,5.70
2023-06-26T03:43:20.733Z,4.95
2023-06-26T03:46:05.756Z,4.70
2023-06-26T03:48:35.497Z,4.70
2023-06-26T03:51:05.538Z,4.72
2023-06-26T03:53:35.225Z,4.68
2023-06-26T03:56:04.976Z,4.82
2023-06-26T03:58:37.491Z,5.03
2023-06-26T04:01:07.897Z,4.85
2023-06-26T04:03:38.153Z,5.30
2023-06-26T04:06:08.202Z,5.38
2023-06-26T04:08:37.948Z,4.18
2023-06-26T04:11:07.889Z,3.97
2023-06-26T04:13:40.231Z,4.65
2023-06-26T04:16:12.894Z,4.43
2023-06-26T04:18:42.583Z,4.22
2023-06-26T04:21:13.150Z,3.97
2023-06-26T04:23:43.398Z,4.68
2023-06-26T04:26:15.640Z,5.18
2023-06-26T04:28:48.026Z,4.22
2023-06-26T04:31:17.755Z,4.60
2023-06-26T04:33:52.126Z,5.60
2023-06-26T04:36:21.839Z,5.30
2023-06-26T04:38:52.190Z,4.88
2023-06-26T04:41:21.908Z,4.90
2023-06-26T04:43:54.230Z,4.57
2023-06-26T04:46:24.044Z,5.38
2023-06-26T04:48:53.952Z,5.30
2023-06-26T04:51:23.718Z,4.97
2023-06-26T04:53:53.589Z,4.80
2023-06-26T04:56:23.460Z,4.05
2023-06-26T04:58:55.772Z,4.72
2023-06-26T05:01:25.514Z,4.35
2023-06-26T05:03:55.457Z,4.50
2023-06-26T05:06:25.184Z,4.38
2023-06-26T05:08:54.995Z,4.53
2023-06-26T05:11:24.812Z,4.20
2023-06-26T05:13:57.220Z,4.88
2023-06-26T05:16:27.095Z,4.78
2023-06-26T05:18:56.794Z,4.60
2023-06-26T05:21:26.704Z,5.05
2023-06-26T05:23:59.924Z,4.00
2023-06-26T05:26:30.112Z,4.40
2023-06-26T05:29:03.042Z,4.10
2023-06-26T05:31:34.898Z,4.30
2023-06-26T05:34:06.061Z,3.95
2023-06-26T05:36:37.719Z,4.60
2023-06-26T05:39:07.819Z,3.88
2023-06-26T05:41:37.790Z,4.82
2023-06-26T05:44:10.191Z,4.55
2023-06-26T05:46:39.896Z,4.25
2023-06-26T05:49:09.612Z,4.25
2023-06-26T05:51:39.865Z,3.90
2023-06-26T05:54:09.986Z,4.50
2023-06-26T05:56:41.625Z,3.80
2023-06-26T05:59:16.054Z,4.65
2023-06-26T06:01:45.860Z,3.92
2023-06-26T06:04:15.668Z,3.75
2023-06-26T06:06:45.513Z,4.30
2023-06-26T06:09:15.317Z,4.57
2023-06-26T06:11:45.061Z,3.45
2023-06-26T06:14:17.428Z,3.85
2023-06-26T06:16:47.142Z,4.45
2023-06-26T06:19:16.949Z,4.13
2023-06-26T06:21:46.876Z,3.83
2023-06-26T06:24:16.639Z,4.25
2023-06-26T06:26:46.473Z,4.20
2023-06-26T06:29:20.337Z,4.45
2023-06-26T06:31:50.640Z,4.20
2023-06-26T06:34:20.452Z,4.68
2023-06-26T06:36:51.281Z,4.40
2023-06-26T06:39:21.124Z,3.85
2023-06-26T06:41:50.848Z,4.60
2023-06-26T06:44:23.415Z,4.30
2023-06-26T06:46:53.123Z,4.05
2023-06-26T06:49:22.863Z,4.28
2023-06-26T06:51:52.597Z,3.67
2023-06-26T06:54:22.547Z,3.95
2023-06-26T06:56:52.241Z,4.00
2023-06-26T06:59:24.539Z,3.97
2023-06-26T07:01:54.319Z,4.40
2023-06-26T07:04:24.105Z,3.65
2023-06-26T07:06:53.845Z,3.85
2023-06-26T07:09:23.637Z,3.75
2023-06-26T07:11:53.388Z,4.90
2023-06-26T07:14:25.705Z,4.07
2023-06-26T07:16:55.409Z,3.70
2023-06-26T07:19:25.131Z,3.65
2023-06-26T07:21:54.849Z,3.67
2023-06-26T07:24:24.546Z,3.00
2023-06-26T07:26:54.249Z,5.15
2023-06-26T07:29:26.587Z,3.58
2023-06-26T07:31:56.354Z,3.75
2023-06-26T07:34:26.311Z,4.15
2023-06-26T07:36:56.094Z,3.85
2023-06-26T07:39:25.837Z,3.28
2023-06-26T07:41:55.552Z,4.10
2023-06-26T07:44:28.161Z,3.53
2023-06-26T07:46:58.188Z,3.22
2023-06-26T07:49:27.968Z,3.47
2023-06-26T07:51:57.879Z,3.25
2023-06-26T07:54:27.615Z,3.00
2023-06-26T07:56:58.447Z,2.92
2023-06-26T07:59:31.935Z,3.38
2023-06-26T08:02:02.588Z,3.28
2023-06-26T08:04:33.727Z,2.72
2023-06-26T08:07:05.157Z,2.80
2023-06-26T08:09:35.125Z,2.70
2023-06-26T08:12:04.843Z,2.50
2023-06-26T08:14:38.980Z,2.70
2023-06-26T08:17:08.716Z,2.47
2023-06-26T08:19:38.456Z,2.45
2023-06-26T08:22:08.668Z,2.40
2023-06-26T08:24:38.383Z,2.30
2023-06-26T08:27:09.234Z,1.90
2023-06-26T08:29:41.561Z,2.30
2023-06-26T08:32:11.301Z,1.90
2023-06-26T08:34:41.014Z,2.08
2023-06-26T08:37:10.827Z,2.08
2023-06-26T08:39:40.570Z,2.15
2023-06-26T08:42:10.401Z,2.08
2023-06-26T08:44:52.733Z,2.40
2023-06-26T08:47:31.001Z,2.22
2023-06-26T08:50:05.403Z,2.35
2023-06-26T08:52:37.861Z,2.30
2023-06-26T08:55:10.853Z,2.22
2023-06-26T08:57:41.833Z,2.17
2023-06-26T09:00:16.186Z,2.17
2023-06-26T09:02:46.482Z,2.40
2023-06-26T09:05:16.457Z,2.40
2023-06-26T09:07:46.425Z,2.33
2023-06-26T09:10:16.310Z,2.38
2023-06-26T09:12:50.340Z,2.15
2023-06-26T09:15:23.103Z,2.05
2023-06-26T09:17:52.934Z,2.33
2023-06-26T09:20:22.765Z,2.45
2023-06-26T09:22:57.080Z,2.50
2023-06-26T09:25:27.350Z,2.20
2023-06-26T09:27:57.148Z,2.20
2023-06-26T09:30:29.542Z,2.15
2023-06-26T09:32:59.550Z,2.03
2023-06-26T09:35:32.879Z,2.20
2023-06-26T09:38:03.154Z,2.28
2023-06-26T09:40:33.163Z,2.33
2023-06-26T09:43:06.497Z,2.20
2023-06-26T09:45:40.335Z,2.08
2023-06-26T09:48:10.809Z,2.13
2023-06-26T09:50:47.118Z,2.20
2023-06-26T09:53:24.199Z,2.08
2023-06-26T09:55:53.937Z,2.40
2023-06-26T09:58:24.419Z,2.30
2023-06-26T10:00:56.883Z,2.33
2023-06-26T10:03:26.821Z,2.25
2023-06-26T10:05:57.124Z,2.05
2023-06-26T10:08:26.877Z,2.13
2023-06-26T10:10:57.421Z,2.17
2023-06-26T10:13:32.032Z,2.20
2023-06-26T10:16:04.818Z,2.55
2023-06-26T10:18:36.461Z,2.63
2023-06-26T10:21:07.463Z,2.38
2023-06-26T10:23:38.008Z,2.50
2023-06-26T10:26:09.491Z,2.50
2023-06-26T10:28:39.933Z,2.30
2023-06-26T10:31:13.601Z,2.53
2023-06-26T10:33:43.500Z,2.20
2023-06-26T10:36:20.149Z,2.30
2023-06-26T10:38:53.703Z,2.20
2023-06-26T10:41:24.293Z,2.38
2023-06-26T10:43:54.728Z,2.60
2023-06-26T10:46:27.081Z,2.50
2023-06-26T10:49:00.758Z,2.22
2023-06-26T10:51:30.879Z,2.42
2023-06-26T10:54:01.237Z,2.53
2023-06-26T10:56:54.808Z,2.42
2023-06-26T10:59:25.050Z,2.55
2023-06-26T11:02:03.821Z,2.42
2023-06-26T11:04:42.673Z,2.50
2023-06-26T11:07:19.406Z,2.83
2023-06-26T11:09:59.080Z,2.22
2023-06-26T11:12:43.631Z,2.40
2023-06-26T11:15:14.381Z,2.20
2023-06-26T11:17:47.359Z,2.42
2023-06-26T11:20:19.142Z,2.45
2023-06-26T11:22:48.888Z,2.80
2023-06-26T11:25:18.587Z,2.30
2023-06-26T11:27:48.525Z,2.30
2023-06-26T11:30:27.225Z,2.33
2023-06-26T11:33:06.251Z,2.42
2023-06-26T11:35:36.122Z,2.30
2023-06-26T11:38:06.495Z,2.30
2023-06-26T11:40:37.673Z,2.20
2023-06-26T11:43:07.601Z,2.13
2023-06-26T11:45:37.720Z,2.03
2023-06-26T11:48:10.550Z,2.10
2023-06-26T11:50:41.811Z,2.10
2023-06-26T11:53:11.812Z,2.28
2023-06-26T11:55:45.196Z,2.30
2023-06-26T11:58:14.889Z,2.00
2023-06-26T12:00:45.481Z,2.15
2023-06-26T12:03:17.909Z,2.25
2023-06-26T12:05:48.474Z,2.55
2023-06-26T12:08:18.368Z,2.60
2023-06-26T12:10:49.420Z,2.15
2023-06-26T12:13:19.195Z,2.63
2023-06-26T12:15:48.989Z,2.47
2023-06-26T12:18:22.115Z,2.83
2023-06-26T12:20:51.842Z,2.22
2023-06-26T12:23:21.593Z,2.15
2023-06-26T12:25:53.087Z,2.60
2023-06-26T12:28:22.976Z,2.60
2023-06-26T12:31:07.463Z,2.40
2023-06-26T12:33:40.518Z,2.28
2023-06-26T12:36:14.303Z,2.25
2023-06-26T12:38:44.519Z,2.15
2023-06-26T12:41:16.706Z,2.60
2023-06-26T12:43:46.663Z,2.63
2023-06-26T12:46:16.434Z,2.40
2023-06-26T12:48:48.844Z,2.50
2023-06-26T12:51:19.116Z,3.08
2023-06-26T12:53:48.848Z,2.50
2023-06-26T12:56:18.556Z,2.53
2023-06-26T12:58:48.409Z,2.25
2023-06-26T13:01:21.385Z,2.47
2023-06-26T13:03:53.891Z,2.35
2023-06-26T13:06:23.742Z,2.28
2023-06-26T13:08:53.422Z,2.20
2023-06-26T13:11:26.011Z,2.42
2023-06-26T13:14:09.417Z,2.58
2023-06-26T13:16:40.717Z,2.30
2023-06-26T13:19:13.040Z,2.67
2023-06-26T13:21:43.254Z,2.33
2023-06-26T13:24:13.186Z,2.30
2023-06-26T13:26:43.011Z,2.20
2023-06-26T13:29:12.789Z,2.40
2023-06-26T13:31:42.660Z,2.90
2023-06-26T13:34:23.517Z,2.45
2023-06-26T13:36:53.254Z,2.28
2023-06-26T13:39:22.940Z,2.50
2023-06-26T13:41:52.625Z,2.55
2023-06-26T13:44:35.828Z,2.38
2023-06-26T13:47:09.866Z,2.20
2023-06-26T13:49:43.280Z,2.45
2023-06-26T13:52:13.026Z,2.40
2023-06-26T13:54:43.393Z,2.60
2023-06-26T13:57:13.107Z,2.40
2023-06-26T13:59:44.564Z,2.20
2023-06-26T14:02:15.287Z,2.50
2023-06-26T14:04:47.886Z,2.40
2023-06-26T14:07:17.705Z,2.65
2023-06-26T14:09:47.467Z,2.58
2023-06-26T14:12:17.259Z,2.25
2023-06-26T14:14:46.991Z,2.28
2023-06-26T14:17:17.612Z,2.35
2023-06-26T14:19:50.035Z,2.40
2023-06-26T14:22:19.741Z,2.75
2023-06-26T14:24:49.440Z,2.42
2023-06-26T14:27:19.151Z,2.63
2023-06-26T14:29:48.884Z,2.40
2023-06-26T14:32:18.681Z,2.60
2023-06-26T14:34:51.048Z,2.33
2023-06-26T14:37:20.809Z,2.60
2023-06-26T14:39:50.538Z,2.70
2023-06-26T14:42:20.694Z,2.50
2023-06-26T14:44:51.931Z,2.70
2023-06-26T14:47:22.219Z,2.50
2023-06-26T14:49:54.986Z,2.92
2023-06-26T14:52:24.712Z,2.20
2023-06-26T14:54:54.416Z,2.60
2023-06-26T14:57:24.166Z,2.58
2023-06-26T14:59:53.892Z,2.40
2023-06-26T15:02:23.625Z,2.17
2023-06-26T15:04:55.970Z,2.50
2023-06-26T15:07:25.767Z,2.38
2023-06-26T15:09:55.555Z,2.70
2023-06-26T15:12:25.332Z,2.50
2023-06-26T15:14:55.370Z,2.00
2023-06-26T15:17:25.111Z,2.38
2023-06-26T15:19:57.487Z,2.33
2023-06-26T15:22:30.074Z,2.60
2023-06-26T15:24:59.808Z,2.50
2023-06-26T15:27:29.513Z,2.28
2023-06-26T15:29:59.650Z,2.33
2023-06-26T15:32:29.387Z,2.50
2023-06-26T15:35:01.727Z,2.42
2023-06-26T15:37:31.500Z,2.20
2023-06-26T15:40:01.248Z,2.25
2023-06-26T15:42:31.655Z,2.10
2023-06-26T15:45:01.476Z,2.15
2023-06-26T15:47:31.255Z,2.33
2023-06-26T15:50:04.476Z,2.08
2023-06-26T15:52:34.204Z,2.78
2023-06-26T15:55:03.886Z,2.67
2023-06-26T15:57:35.022Z,2.25
2023-06-26T16:00:04.931Z,2.58
2023-06-26T16:02:42.463Z,2.38
2023-06-26T16:05:14.913Z,2.30
2023-06-26T16:07:55.880Z,2.55
2023-06-26T16:10:27.851Z,2.47
2023-06-26T16:12:57.540Z,2.30
2023-06-26T16:15:27.280Z,2.50
2023-06-26T16:17:56.970Z,2.20
2023-06-26T16:20:29.260Z,2.30
2023-06-26T16:22:59.051Z,2.70
2023-06-26T16:25:28.757Z,2.50
2023-06-26T16:27:58.604Z,2.70
2023-06-26T16:30:28.398Z,3.10
2023-06-26T16:33:00.270Z,3.58
2023-06-26T16:35:35.424Z,3.00
2023-06-26T16:38:05.512Z,2.55
2023-06-26T16:40:35.204Z,3.03
2023-06-26T16:43:05.065Z,2.83
2023-06-26T16:45:34.838Z,2.80
2023-06-26T16:48:04.665Z,2.25
2023-06-26T16:50:37.071Z,2.65
2023-06-26T16:53:07.073Z,2.65
2023-06-26T16:55:36.770Z,2.58
2023-06-26T16:58:06.512Z,2.67
2023-06-26T17:00:36.757Z,2.50
2023-06-26T17:03:06.722Z,3.13
2023-06-26T17:05:39.238Z,3.15
2023-06-26T17:08:10.370Z,3.22
2023-06-26T17:10:40.582Z,2.75
2023-06-26T17:13:10.554Z,4.95
2023-06-26T17:15:40.769Z,5.70
2023-06-26T17:18:10.514Z,3.63
2023-06-26T17:20:43.136Z,4.60
2023-06-26T17:23:12.881Z,4.72
2023-06-26T17:25:42.615Z,5.05
2023-06-26T17:28:12.317Z,4.55
2023-06-26T17:30:43.960Z,4.05
2023-06-26T17:33:13.832Z,4.10
2023-06-26T17:35:46.136Z,5.20
2023-06-26T17:38:16.434Z,5.43
2023-06-26T17:40:46.351Z,6.70
2023-06-26T17:43:16.088Z,4.70
2023-06-26T17:45:45.802Z,4.07
2023-06-26T17:48:15.501Z,3.85
2023-06-26T17:50:47.881Z,3.00
2023-06-26T17:53:19.107Z,2.67
2023-06-26T17:55:48.835Z,3.60
2023-06-26T17:58:18.583Z,3.55
2023-06-26T18:00:48.312Z,3.10
2023-06-26T18:03:18.064Z,3.80
2023-06-26T18:05:50.398Z,4.43
2023-06-26T18:08:20.141Z,4.30
2023-06-26T18:10:49.833Z,4.35
2023-06-26T18:13:19.655Z,3.80
2023-06-26T18:15:49.372Z,4.22
2023-06-26T18:18:19.064Z,5.03
2023-06-26T18:20:51.372Z,3.90
2023-06-26T18:23:21.100Z,4.65
2023-06-26T18:25:50.969Z,4.25
2023-06-26T18:28:21.254Z,4.15
2023-06-26T18:30:51.078Z,3.95
2023-06-26T18:33:21.568Z,3.38
2023-06-26T18:35:53.958Z,3.83
2023-06-26T18:38:23.719Z,3.90
2023-06-26T18:40:53.610Z,5.07
2023-06-26T18:43:23.504Z,4.05
2023-06-26T18:45:53.216Z,3.50
2023-06-26T18:48:23.111Z,3.65
2023-06-26T18:50:55.426Z,3.70
2023-06-26T18:53:25.135Z,3.50
2023-06-26T18:55:54.855Z,3.90
2023-06-26T18:58:24.863Z,4.85
2023-06-26T19:00:54.574Z,5.15
2023-06-26T19:03:24.304Z,9.25
2023-06-26T19:05:56.770Z,9.68
2023-06-26T19:08:26.497Z,8.57
2023-06-26T19:10:56.200Z,7.80
2023-06-26T19:13:26.141Z,7.43
2023-06-26T19:15:55.827Z,6.60
2023-06-26T19:18:25.541Z,5.07
2023-06-26T19:20:57.873Z,3.60
2023-06-26T19:23:27.628Z,4.53
2023-06-26T19:25:58.589Z,3.70
2023-06-26T19:28:28.420Z,4.20
2023-06-26T19:30:58.185Z,3.88
2023-06-26T19:33:27.974Z,4.75
2023-06-26T19:36:00.406Z,5.28
2023-06-26T19:38:30.117Z,5.90
2023-06-26T19:40:59.842Z,4.75
2023-06-26T19:43:29.590Z,4.35
2023-06-26T19:46:00.945Z,4.38
2023-06-26T19:48:30.966Z,4.43
2023-06-26T19:51:04.275Z,4.10
2023-06-26T19:53:34.072Z,4.43
2023-06-26T19:56:05.930Z,4.88
2023-06-26T19:58:35.638Z,5.63
2023-06-26T20:01:05.356Z,6.63
2023-06-26T20:03:35.104Z,6.70
2023-06-26T20:06:07.676Z,6.18
2023-06-26T20:08:37.362Z,10.50
2023-06-26T20:11:07.123Z,4.90
2023-06-26T20:13:36.820Z,3.92
2023-06-26T20:16:06.556Z,3.60
2023-06-26T20:18:36.278Z,3.95
2023-06-26T20:21:08.604Z,4.50
2023-06-26T20:23:38.334Z,4.22
2023-06-26T20:26:08.109Z,3.92
2023-06-26T20:28:37.854Z,2.72
2023-06-26T20:31:07.790Z,3.25
2023-06-26T20:33:37.618Z,2.72
2023-06-26T20:36:10.425Z,2.50
2023-06-26T20:38:40.153Z,2.20
2023-06-26T20:41:10.289Z,2.58
2023-06-26T20:43:40.467Z,2.58
2023-06-26T20:46:10.946Z,2.55
2023-06-26T20:48:41.017Z,2.28
2023-06-26T20:51:14.032Z,2.60
2023-06-26T20:53:44.199Z,3.15
2023-06-26T20:56:14.698Z,3.25
2023-06-26T20:58:44.408Z,3.53
2023-06-26T21:01:14.157Z,3.13
2023-06-26T21:03:43.959Z,3.45
2023-06-26T21:06:16.335Z,3.90
2023-06-26T21:08:46.045Z,3.38
2023-06-26T21:11:15.744Z,4.00
2023-06-26T21:13:45.435Z,3.58
2023-06-26T21:16:15.313Z,4.05
2023-06-26T21:18:45.037Z,3.47
2023-06-26T21:21:17.360Z,3.50
2023-06-26T21:23:47.148Z,4.00
2023-06-26T21:26:16.918Z,3.92
2023-06-26T21:28:46.820Z,4.03
2023-06-26T21:31:16.605Z,3.85
2023-06-26T21:33:46.337Z,4.60
2023-06-26T21:36:18.868Z,3.60
2023-06-26T21:38:48.792Z,3.88
2023-06-26T21:41:18.627Z,3.95
2023-06-26T21:43:49.236Z,4.60
2023-06-26T21:46:19.102Z,4.05
2023-06-26T21:48:48.854Z,3.63
2023-06-26T21:51:21.800Z,3.78
2023-06-26T21:53:51.584Z,4.07
2023-06-26T21:56:21.345Z,3.97
2023-06-26T21:58:51.040Z,4.28
2023-06-26T22:01:20.790Z,4.00
2023-06-26T22:03:50.514Z,3.58
2023-06-26T22:06:22.808Z,4.05
2023-06-26T22:08:52.598Z,4.13
2023-06-26T22:11:22.407Z,4.30
2023-06-26T22:13:53.651Z,3.65
2023-06-26T22:16:23.402Z,4.18
2023-06-26T22:18:53.141Z,3.92
2023-06-26T22:21:25.472Z,4.30
2023-06-26T22:23:55.276Z,4.97
2023-06-26T22:26:24.985Z,4.25
2023-06-26T22:28:54.693Z,4.40
2023-06-26T22:31:24.482Z,3.67
2023-06-26T22:33:54.239Z,4.03
2023-06-26T22:36:27.316Z,3.65
2023-06-26T22:38:57.016Z,3.85
2023-06-26T22:41:26.684Z,4.93
2023-06-26T22:43:56.395Z,4.47
2023-06-26T22:46:26.132Z,4.05
2023-06-26T22:48:55.837Z,4.10
2023-06-26T22:51:28.128Z,4.05
2023-06-26T22:53:58.386Z,4.72
2023-06-26T22:56:28.348Z,4.45
2023-06-26T22:58:58.056Z,4.53
2023-06-26T23:01:27.821Z,4.63
2023-06-26T23:03:57.589Z,5.03
2023-06-26T23:06:29.998Z,4.70
2023-06-26T23:08:59.743Z,4.25
2023-06-26T23:11:29.466Z,4.28
2023-06-26T23:13:59.195Z,4.70
2023-06-26T23:16:29.001Z,4.82
2023-06-26T23:18:58.696Z,4.50
2023-06-26T23:21:31.268Z,4.78
2023-06-26T23:24:02.114Z,5.28
2023-06-26T23:26:32.378Z,5.25
2023-06-26T23:29:02.904Z,5.53
2023-06-26T23:31:32.711Z,5.32
2023-06-26T23:34:02.526Z,5.47
2023-06-26T23:36:39.092Z,5.18
2023-06-26T23:39:11.359Z,5.93
2023-06-26T23:41:41.588Z,4.78
2023-06-26T23:44:14.562Z,4.57
2023-06-26T23:46:45.197Z,4.97
2023-06-26T23:49:14.948Z,5.07
2023-06-26T23:51:48.513Z,4.53
2023-06-26T23:54:18.317Z,4.57
2023-06-26T23:56:48.035Z,3.63
2023-06-26T23:59:18.171Z,3.20
